sensor_id;sensor_type;location;lat;lon;timestamp;pressure;altitude;pressure_sealevel;temperature;humidity
10606;BME280;5350;42.698;23.148;2024-03-23T00:52:26;93653.09;;;3.98;86.79
10606;BME280;5350;42.698;23.148;2024-03-23T00:54:52;93653.72;;;3.79;88.22
10606;BME280;5350;42.698;23.148;2024-03-23T00:57:18;93654.06;;;3.87;87.49
10606;BME280;5350;42.698;23.148;2024-03-23T00:59:45;93647.81;;;3.88;87.92
10606;BME280;5350;42.698;23.148;2024-03-23T01:02:10;93646.00;;;3.89;86.80
10606;BME280;5350;42.698;23.148;2024-03-23T01:04:37;93646.44;;;3.81;88.47
10606;BME280;5350;42.698;23.148;2024-03-23T01:07:03;93628.91;;;3.71;87.89
10606;BME280;5350;42.698;23.148;2024-03-23T01:09:31;93629.69;;;3.72;88.40
10606;BME280;5350;42.698;23.148;2024-03-23T01:11:57;93643.56;;;3.77;88.58
10606;BME280;5350;42.698;23.148;2024-03-23T01:14:24;93645.47;;;3.60;89.54
10606;BME280;5350;42.698;23.148;2024-03-23T01:16:49;93649.59;;;3.56;88.83
10606;BME280;5350;42.698;23.148;2024-03-23T01:19:16;93643.78;;;3.49;89.11
10606;BME280;5350;42.698;23.148;2024-03-23T01:21:42;93651.75;;;3.64;89.04
10606;BME280;5350;42.698;23.148;2024-03-23T01:24:09;93633.09;;;3.72;86.64
10606;BME280;5350;42.698;23.148;2024-03-23T01:26:37;93648.06;;;3.60;86.98
10606;BME280;5350;42.698;23.148;2024-03-23T01:29:04;93640.06;;;3.67;87.45
10606;BME280;5350;42.698;23.148;2024-03-23T01:31:29;93641.09;;;3.66;87.84
10606;BME280;5350;42.698;23.148;2024-03-23T01:33:56;93640.34;;;3.70;87.41
10606;BME280;5350;42.698;23.148;2024-03-23T01:36:22;93633.47;;;3.59;87.63
10606;BME280;5350;42.698;23.148;2024-03-23T01:38:48;93640.34;;;3.70;87.99
10606;BME280;5350;42.698;23.148;2024-03-23T01:41:14;93641.44;;;3.74;86.13
10606;BME280;5350;42.698;23.148;2024-03-23T01:43:42;93640.91;;;3.72;85.27
10606;BME280;5350;42.698;23.148;2024-03-23T01:46:08;93622.00;;;3.55;86.61
10606;BME280;5350;42.698;23.148;2024-03-23T01:48:34;93645.56;;;3.70;86.56
10606;BME280;5350;42.698;23.148;2024-03-23T01:51:00;93650.47;;;3.67;86.11
10606;BME280;5350;42.698;23.148;2024-03-23T01:53:27;93643.75;;;3.71;86.00
10606;BME280;5350;42.698;23.148;2024-03-23T01:55:54;93647.38;;;3.70;86.82
10606;BME280;5350;42.698;23.148;2024-03-23T01:58:22;93641.91;;;3.71;86.21
10606;BME280;5350;42.698;23.148;2024-03-23T02:00:49;93644.28;;;3.73;85.92
10606;BME280;5350;42.698;23.148;2024-03-23T02:03:22;93644.84;;;3.75;85.81
10606;BME280;5350;42.698;23.148;2024-03-23T02:05:48;93627.59;;;3.69;84.70
10606;BME280;5350;42.698;23.148;2024-03-23T02:08:15;93649.19;;;3.69;84.71
10606;BME280;5350;42.698;23.148;2024-03-23T02:10:42;93648.19;;;3.49;85.87
10606;BME280;5350;42.698;23.148;2024-03-23T02:13:09;93624.84;;;3.27;87.23
10606;BME280;5350;42.698;23.148;2024-03-23T02:15:35;93640.09;;;3.45;87.87
10606;BME280;5350;42.698;23.148;2024-03-23T02:18:03;93644.28;;;3.46;87.15
10606;BME280;5350;42.698;23.148;2024-03-23T02:20:29;93645.22;;;3.35;87.28
10606;BME280;5350;42.698;23.148;2024-03-23T02:22:57;93651.84;;;3.26;88.70
10606;BME280;5350;42.698;23.148;2024-03-23T02:25:22;93628.53;;;3.09;89.64
10606;BME280;5350;42.698;23.148;2024-03-23T02:27:49;93651.56;;;3.22;89.72
10606;BME280;5350;42.698;23.148;2024-03-23T02:30:15;93647.75;;;3.08;90.50
10606;BME280;5350;42.698;23.148;2024-03-23T02:32:42;93648.16;;;3.22;90.12
10606;BME280;5350;42.698;23.148;2024-03-23T02:35:07;93647.41;;;3.00;91.50
10606;BME280;5350;42.698;23.148;2024-03-23T02:37:34;93642.75;;;3.02;91.68
10606;BME280;5350;42.698;23.148;2024-03-23T02:40:01;93649.56;;;3.08;91.87
10606;BME280;5350;42.698;23.148;2024-03-23T02:42:28;93642.69;;;3.18;90.87
10606;BME280;5350;42.698;23.148;2024-03-23T02:44:54;93647.75;;;3.30;89.60
10606;BME280;5350;42.698;23.148;2024-03-23T02:47:21;93647.59;;;3.15;90.58
10606;BME280;5350;42.698;23.148;2024-03-23T02:49:46;93641.94;;;3.01;91.34
10606;BME280;5350;42.698;23.148;2024-03-23T02:52:13;93642.13;;;2.95;92.27
10606;BME280;5350;42.698;23.148;2024-03-23T02:54:39;93638.03;;;2.99;91.50
10606;BME280;5350;42.698;23.148;2024-03-23T02:57:09;93638.34;;;3.02;91.97
10606;BME280;5350;42.698;23.148;2024-03-23T02:59:34;93648.06;;;3.12;90.70
10606;BME280;5350;42.698;23.148;2024-03-23T03:02:01;93641.94;;;3.01;90.60
10606;BME280;5350;42.698;23.148;2024-03-23T03:04:27;93639.53;;;2.95;91.48
10606;BME280;5350;42.698;23.148;2024-03-23T03:06:54;93638.13;;;3.09;91.34
10606;BME280;5350;42.698;23.148;2024-03-23T03:09:19;93638.63;;;3.06;90.49
10606;BME280;5350;42.698;23.148;2024-03-23T03:11:46;93632.66;;;3.05;91.60
10606;BME280;5350;42.698;23.148;2024-03-23T03:14:13;93635.06;;;2.90;92.47
10606;BME280;5350;42.698;23.148;2024-03-23T03:16:40;93638.53;;;2.96;93.06
10606;BME280;5350;42.698;23.148;2024-03-23T03:19:05;93635.66;;;2.97;92.58
10606;BME280;5350;42.698;23.148;2024-03-23T03:21:32;93635.38;;;2.94;92.95
10606;BME280;5350;42.698;23.148;2024-03-23T03:23:58;93640.19;;;2.85;93.08
10606;BME280;5350;42.698;23.148;2024-03-23T03:26:25;93628.91;;;2.75;94.54
10606;BME280;5350;42.698;23.148;2024-03-23T03:28:51;93632.84;;;2.77;95.12
10606;BME280;5350;42.698;23.148;2024-03-23T03:31:19;93638.56;;;2.79;95.53
10606;BME280;5350;42.698;23.148;2024-03-23T03:33:44;93633.97;;;2.86;95.73
10606;BME280;5350;42.698;23.148;2024-03-23T03:36:11;93632.69;;;2.89;94.97
10606;BME280;5350;42.698;23.148;2024-03-23T03:38:37;93629.84;;;2.90;93.75
10606;BME280;5350;42.698;23.148;2024-03-23T03:41:04;93638.56;;;2.79;94.84
10606;BME280;5350;42.698;23.148;2024-03-23T03:43:31;93636.16;;;2.73;95.78
10606;BME280;5350;42.698;23.148;2024-03-23T03:45:59;93645.31;;;2.80;95.42
10606;BME280;5350;42.698;23.148;2024-03-23T03:48:27;93613.25;;;2.70;95.38
10606;BME280;5350;42.698;23.148;2024-03-23T03:50:54;93639.28;;;2.75;95.94
10606;BME280;5350;42.698;23.148;2024-03-23T03:53:19;93638.03;;;2.77;95.47
10606;BME280;5350;42.698;23.148;2024-03-23T03:55:46;93628.16;;;2.58;96.63
10606;BME280;5350;42.698;23.148;2024-03-23T03:58:12;93633.03;;;2.54;97.34
10606;BME280;5350;42.698;23.148;2024-03-23T04:00:39;93634.94;;;2.42;98.55
10606;BME280;5350;42.698;23.148;2024-03-23T04:03:05;93642.16;;;2.40;99.03
10606;BME280;5350;42.698;23.148;2024-03-23T04:05:33;93648.00;;;2.47;99.74
10606;BME280;5350;42.698;23.148;2024-03-23T04:07:58;93642.50;;;2.43;99.47
10606;BME280;5350;42.698;23.148;2024-03-23T04:10:25;93642.63;;;2.54;99.59
10606;BME280;5350;42.698;23.148;2024-03-23T04:12:52;93638.44;;;2.53;98.61
10606;BME280;5350;42.698;23.148;2024-03-23T04:15:18;93648.91;;;2.58;98.84
10606;BME280;5350;42.698;23.148;2024-03-23T04:17:44;93649.31;;;2.66;97.91
10606;BME280;5350;42.698;23.148;2024-03-23T04:20:11;93650.81;;;2.62;97.52
10606;BME280;5350;42.698;23.148;2024-03-23T04:22:40;93651.28;;;2.59;98.36
10606;BME280;5350;42.698;23.148;2024-03-23T04:25:07;93649.97;;;2.40;100.00
10606;BME280;5350;42.698;23.148;2024-03-23T04:27:33;93647.91;;;2.42;99.72
10606;BME280;5350;42.698;23.148;2024-03-23T04:29:59;93646.59;;;2.39;100.00
10606;BME280;5350;42.698;23.148;2024-03-23T04:32:26;93659.91;;;2.26;100.00
10606;BME280;5350;42.698;23.148;2024-03-23T04:34:53;93638.72;;;2.34;100.00
10606;BME280;5350;42.698;23.148;2024-03-23T04:37:19;93651.88;;;2.11;100.00
10606;BME280;5350;42.698;23.148;2024-03-23T04:39:47;93648.88;;;2.19;100.00
10606;BME280;5350;42.698;23.148;2024-03-23T04:42:14;93658.16;;;2.15;100.00
10606;BME280;5350;42.698;23.148;2024-03-23T04:44:42;93653.31;;;2.19;100.00
10606;BME280;5350;42.698;23.148;2024-03-23T04:47:10;93652.50;;;2.35;100.00
10606;BME280;5350;42.698;23.148;2024-03-23T04:49:37;93664.84;;;2.28;100.00
10606;BME280;5350;42.698;23.148;2024-03-23T04:52:04;93660.53;;;2.33;100.00
10606;BME280;5350;42.698;23.148;2024-03-23T04:54:31;93656.91;;;2.34;100.00
10606;BME280;5350;42.698;23.148;2024-03-23T04:56:59;93654.94;;;2.41;100.00
10606;BME280;5350;42.698;23.148;2024-03-23T04:59:25;93658.13;;;2.49;100.00
10606;BME280;5350;42.698;23.148;2024-03-23T05:01:51;93660.31;;;2.57;100.00
10606;BME280;5350;42.698;23.148;2024-03-23T05:04:18;93652.53;;;2.57;100.00
10606;BME280;5350;42.698;23.148;2024-03-23T05:06:44;93653.44;;;2.46;100.00
10606;BME280;5350;42.698;23.148;2024-03-23T05:09:10;93658.91;;;2.66;100.00
10606;BME280;5350;42.698;23.148;2024-03-23T05:11:37;93658.56;;;2.79;100.00
10606;BME280;5350;42.698;23.148;2024-03-23T05:14:05;93661.44;;;2.82;100.00
10606;BME280;5350;42.698;23.148;2024-03-23T05:16:31;93659.78;;;2.93;100.00
10606;BME280;5350;42.698;23.148;2024-03-23T05:18:57;93665.09;;;3.03;100.00
10606;BME280;5350;42.698;23.148;2024-03-23T05:21:23;93654.53;;;3.09;100.00
10606;BME280;5350;42.698;23.148;2024-03-23T05:23:50;93658.75;;;3.15;100.00
10606;BME280;5350;42.698;23.148;2024-03-23T05:26:16;93658.84;;;3.25;100.00
10606;BME280;5350;42.698;23.148;2024-03-23T05:28:43;93656.88;;;3.33;100.00
10606;BME280;5350;42.698;23.148;2024-03-23T05:31:10;93658.31;;;3.45;99.91
10606;BME280;5350;42.698;23.148;2024-03-23T05:33:37;93655.78;;;3.50;99.41
10606;BME280;5350;42.698;23.148;2024-03-23T05:36:04;93667.91;;;3.66;97.26
10606;BME280;5350;42.698;23.148;2024-03-23T05:38:31;93652.38;;;3.76;97.91
10606;BME280;5350;42.698;23.148;2024-03-23T05:40:58;93656.66;;;3.87;97.68
10606;BME280;5350;42.698;23.148;2024-03-23T05:43:25;93654.28;;;3.86;97.42
10606;BME280;5350;42.698;23.148;2024-03-23T05:45:54;93659.34;;;3.97;97.38
10606;BME280;5350;42.698;23.148;2024-03-23T05:48:23;93667.97;;;4.03;97.44
10606;BME280;5350;42.698;23.148;2024-03-23T05:50:50;93656.81;;;4.07;96.71
10606;BME280;5350;42.698;23.148;2024-03-23T05:53:17;93657.44;;;4.20;95.18
10606;BME280;5350;42.698;23.148;2024-03-23T05:55:43;93653.34;;;4.29;95.33
10606;BME280;5350;42.698;23.148;2024-03-23T05:58:10;93658.13;;;4.42;94.74
10606;BME280;5350;42.698;23.148;2024-03-23T06:00:36;93654.78;;;4.46;95.39
10606;BME280;5350;42.698;23.148;2024-03-23T06:03:03;93656.94;;;4.54;94.42
10606;BME280;5350;42.698;23.148;2024-03-23T06:05:30;93650.72;;;4.60;93.46
10606;BME280;5350;42.698;23.148;2024-03-23T06:07:56;93648.63;;;4.62;93.79
10606;BME280;5350;42.698;23.148;2024-03-23T06:10:22;93643.16;;;4.64;92.87
10606;BME280;5350;42.698;23.148;2024-03-23T06:12:49;93646.34;;;4.71;92.75
10606;BME280;5350;42.698;23.148;2024-03-23T06:15:17;93648.19;;;4.75;93.34
10606;BME280;5350;42.698;23.148;2024-03-23T06:17:44;93604.53;;;4.51;92.66
10606;BME280;5350;42.698;23.148;2024-03-23T06:20:10;93655.81;;;4.87;93.02
10606;BME280;5350;42.698;23.148;2024-03-23T06:22:38;93647.00;;;4.98;93.92
10606;BME280;5350;42.698;23.148;2024-03-23T06:25:05;93647.63;;;5.15;92.00
10606;BME280;5350;42.698;23.148;2024-03-23T06:27:31;93657.56;;;5.23;91.57
10606;BME280;5350;42.698;23.148;2024-03-23T06:29:57;93651.84;;;5.31;90.35
10606;BME280;5350;42.698;23.148;2024-03-23T06:32:24;93655.28;;;5.42;87.13
10606;BME280;5350;42.698;23.148;2024-03-23T06:34:50;93644.84;;;5.42;88.46
10606;BME280;5350;42.698;23.148;2024-03-23T06:37:16;93651.13;;;5.51;86.47
10606;BME280;5350;42.698;23.148;2024-03-23T06:39:45;93660.28;;;5.58;85.98
10606;BME280;5350;42.698;23.148;2024-03-23T06:42:12;93655.59;;;5.65;84.97
10606;BME280;5350;42.698;23.148;2024-03-23T06:44:38;93659.00;;;5.76;85.88
10606;BME280;5350;42.698;23.148;2024-03-23T06:47:05;93658.28;;;5.91;83.98
10606;BME280;5350;42.698;23.148;2024-03-23T06:49:30;93657.25;;;6.02;84.56
10606;BME280;5350;42.698;23.148;2024-03-23T06:51:57;93659.09;;;6.26;84.87
10606;BME280;5350;42.698;23.148;2024-03-23T06:54:24;93653.38;;;6.39;84.69
10606;BME280;5350;42.698;23.148;2024-03-23T06:56:52;93655.97;;;6.44;83.01
10606;BME280;5350;42.698;23.148;2024-03-23T06:59:18;93658.84;;;6.58;81.73
10606;BME280;5350;42.698;23.148;2024-03-23T07:01:45;93650.97;;;6.68;81.25
10606;BME280;5350;42.698;23.148;2024-03-23T07:04:10;93647.06;;;6.76;80.55
10606;BME280;5350;42.698;23.148;2024-03-23T07:06:42;93646.25;;;6.85;78.76
10606;BME280;5350;42.698;23.148;2024-03-23T07:09:08;93650.97;;;6.88;79.25
10606;BME280;5350;42.698;23.148;2024-03-23T07:11:34;93646.19;;;7.05;77.53
10606;BME280;5350;42.698;23.148;2024-03-23T07:14:02;93636.25;;;7.07;78.83
10606;BME280;5350;42.698;23.148;2024-03-23T07:16:29;93641.44;;;7.22;76.77
10606;BME280;5350;42.698;23.148;2024-03-23T07:18:54;93640.88;;;7.31;77.57
10606;BME280;5350;42.698;23.148;2024-03-23T07:21:21;93643.44;;;7.41;77.85
10606;BME280;5350;42.698;23.148;2024-03-23T07:23:47;93637.13;;;7.52;77.65
10606;BME280;5350;42.698;23.148;2024-03-23T07:26:14;93637.28;;;7.70;77.65
10606;BME280;5350;42.698;23.148;2024-03-23T07:28:40;93632.56;;;7.72;76.60
10606;BME280;5350;42.698;23.148;2024-03-23T07:31:11;93636.84;;;7.97;75.94
10606;BME280;5350;42.698;23.148;2024-03-23T07:33:40;93615.66;;;7.98;74.33
10606;BME280;5350;42.698;23.148;2024-03-23T07:36:08;93633.56;;;8.25;73.30
10606;BME280;5350;42.698;23.148;2024-03-23T07:38:34;93634.53;;;8.34;75.02
10606;BME280;5350;42.698;23.148;2024-03-23T07:41:04;93630.22;;;8.48;71.90
10606;BME280;5350;42.698;23.148;2024-03-23T07:43:30;93624.88;;;8.58;71.35
10606;BME280;5350;42.698;23.148;2024-03-23T07:45:57;93621.72;;;8.61;70.38
10606;BME280;5350;42.698;23.148;2024-03-23T07:48:24;93623.94;;;8.78;70.02
10606;BME280;5350;42.698;23.148;2024-03-23T07:51:01;93629.56;;;8.90;69.11
10606;BME280;5350;42.698;23.148;2024-03-23T07:53:27;93616.63;;;8.99;68.90
10606;BME280;5350;42.698;23.148;2024-03-23T07:55:55;93616.94;;;9.16;69.17
10606;BME280;5350;42.698;23.148;2024-03-23T07:58:21;93619.41;;;9.31;67.37
10606;BME280;5350;42.698;23.148;2024-03-23T08:00:47;93622.66;;;9.46;67.27
10606;BME280;5350;42.698;23.148;2024-03-23T08:03:13;93624.78;;;9.63;65.48
10606;BME280;5350;42.698;23.148;2024-03-23T08:05:41;93620.25;;;9.87;66.62
10606;BME280;5350;42.698;23.148;2024-03-23T08:08:07;93609.69;;;9.92;64.15
10606;BME280;5350;42.698;23.148;2024-03-23T08:10:34;93643.50;;;10.17;64.27
10606;BME280;5350;42.698;23.148;2024-03-23T08:12:59;93612.25;;;10.34;60.94
10606;BME280;5350;42.698;23.148;2024-03-23T08:15:26;93600.75;;;10.30;61.51
10606;BME280;5350;42.698;23.148;2024-03-23T08:17:52;93596.69;;;10.52;64.50
10606;BME280;5350;42.698;23.148;2024-03-23T08:20:19;93608.84;;;10.80;61.11
10606;BME280;5350;42.698;23.148;2024-03-23T08:22:46;93608.59;;;10.95;59.04
10606;BME280;5350;42.698;23.148;2024-03-23T08:25:12;93606.06;;;11.03;59.15
10606;BME280;5350;42.698;23.148;2024-03-23T08:27:38;93600.97;;;11.20;58.10
10606;BME280;5350;42.698;23.148;2024-03-23T08:30:06;93607.22;;;11.38;58.72
10606;BME280;5350;42.698;23.148;2024-03-23T08:32:32;93609.94;;;11.60;58.47
10606;BME280;5350;42.698;23.148;2024-03-23T08:34:59;93601.03;;;11.83;58.76
10606;BME280;5350;42.698;23.148;2024-03-23T08:37:25;93594.72;;;12.07;55.77
10606;BME280;5350;42.698;23.148;2024-03-23T08:39:53;93592.56;;;12.31;54.57
10606;BME280;5350;42.698;23.148;2024-03-23T08:42:19;93588.63;;;12.42;53.93
10606;BME280;5350;42.698;23.148;2024-03-23T08:44:46;93584.59;;;12.44;52.82
10606;BME280;5350;42.698;23.148;2024-03-23T08:47:14;93571.13;;;12.46;52.08
10606;BME280;5350;42.698;23.148;2024-03-23T08:49:41;93572.97;;;12.67;52.18
10606;BME280;5350;42.698;23.148;2024-03-23T08:52:07;93573.66;;;12.81;51.14
10606;BME280;5350;42.698;23.148;2024-03-23T08:54:34;93568.72;;;12.89;51.06
10606;BME280;5350;42.698;23.148;2024-03-23T08:57:01;93567.59;;;13.12;50.21
10606;BME280;5350;42.698;23.148;2024-03-23T08:59:27;93565.16;;;13.24;50.74
10606;BME280;5350;42.698;23.148;2024-03-23T09:01:53;93561.44;;;13.33;50.41
10606;BME280;5350;42.698;23.148;2024-03-23T09:04:20;93569.41;;;13.50;51.48
10606;BME280;5350;42.698;23.148;2024-03-23T09:06:46;93557.34;;;13.84;51.06
10606;BME280;5350;42.698;23.148;2024-03-23T09:09:13;93556.09;;;13.98;47.35
10606;BME280;5350;42.698;23.148;2024-03-23T09:11:39;93553.63;;;14.02;47.12
10606;BME280;5350;42.698;23.148;2024-03-23T09:14:07;93547.84;;;14.08;45.84
10606;BME280;5350;42.698;23.148;2024-03-23T09:16:34;93544.00;;;14.31;46.54
10606;BME280;5350;42.698;23.148;2024-03-23T09:19:00;93547.41;;;14.49;45.55
10606;BME280;5350;42.698;23.148;2024-03-23T09:21:26;93538.03;;;14.60;45.28
10606;BME280;5350;42.698;23.148;2024-03-23T09:23:53;93530.97;;;14.73;43.94
10606;BME280;5350;42.698;23.148;2024-03-23T09:26:19;93532.97;;;14.93;44.44
10606;BME280;5350;42.698;23.148;2024-03-23T09:28:48;93508.44;;;15.04;43.31
10606;BME280;5350;42.698;23.148;2024-03-23T09:31:15;93511.75;;;15.31;44.52
10606;BME280;5350;42.698;23.148;2024-03-23T09:33:42;93500.03;;;15.32;42.87
10606;BME280;5350;42.698;23.148;2024-03-23T09:36:08;93512.44;;;15.48;42.93
10606;BME280;5350;42.698;23.148;2024-03-23T09:38:35;93511.47;;;15.53;42.34
10606;BME280;5350;42.698;23.148;2024-03-23T09:41:07;93503.34;;;15.78;40.14
10606;BME280;5350;42.698;23.148;2024-03-23T09:43:34;93498.94;;;16.03;39.92
10606;BME280;5350;42.698;23.148;2024-03-23T09:46:01;93493.91;;;16.10;40.18
10606;BME280;5350;42.698;23.148;2024-03-23T09:48:30;93483.13;;;16.27;39.02
10606;BME280;5350;42.698;23.148;2024-03-23T09:50:56;93478.94;;;16.38;38.99
10606;BME280;5350;42.698;23.148;2024-03-23T09:53:23;93467.84;;;16.57;33.76
10606;BME280;5350;42.698;23.148;2024-03-23T09:55:49;93474.81;;;16.49;32.63
10606;BME280;5350;42.698;23.148;2024-03-23T09:58:16;93476.97;;;16.35;29.97
10606;BME280;5350;42.698;23.148;2024-03-23T10:00:43;93475.41;;;16.34;30.17
10606;BME280;5350;42.698;23.148;2024-03-23T10:03:09;93459.28;;;16.39;30.14
10606;BME280;5350;42.698;23.148;2024-03-23T10:05:38;93465.22;;;16.36;31.03
10606;BME280;5350;42.698;23.148;2024-03-23T10:08:18;93451.88;;;16.45;30.83
10606;BME280;5350;42.698;23.148;2024-03-23T10:10:45;93467.81;;;16.45;31.34
10606;BME280;5350;42.698;23.148;2024-03-23T10:13:23;93456.41;;;16.44;30.75
10606;BME280;5350;42.698;23.148;2024-03-23T10:15:55;93457.38;;;16.60;31.97
10606;BME280;5350;42.698;23.148;2024-03-23T10:18:22;93448.19;;;16.94;30.16
10606;BME280;5350;42.698;23.148;2024-03-23T10:20:51;93449.63;;;17.16;31.53
10606;BME280;5350;42.698;23.148;2024-03-23T10:23:18;93456.06;;;16.91;29.87
10606;BME280;5350;42.698;23.148;2024-03-23T10:25:44;93444.34;;;16.92;30.76
10606;BME280;5350;42.698;23.148;2024-03-23T10:28:12;93437.13;;;16.80;30.19
10606;BME280;5350;42.698;23.148;2024-03-23T10:30:38;93432.69;;;16.96;30.81
10606;BME280;5350;42.698;23.148;2024-03-23T10:33:08;93422.84;;;17.21;29.71
10606;BME280;5350;42.698;23.148;2024-03-23T10:35:34;93431.81;;;17.28;29.39
10606;BME280;5350;42.698;23.148;2024-03-23T10:38:04;93428.16;;;17.21;29.60
10606;BME280;5350;42.698;23.148;2024-03-23T10:40:30;93400.72;;;16.93;30.16
10606;BME280;5350;42.698;23.148;2024-03-23T10:42:58;93419.97;;;17.14;29.47
10606;BME280;5350;42.698;23.148;2024-03-23T10:45:25;93409.78;;;17.04;29.11
10606;BME280;5350;42.698;23.148;2024-03-23T10:47:52;93413.00;;;17.09;28.52
10606;BME280;5350;42.698;23.148;2024-03-23T10:50:18;93396.38;;;17.24;29.79
10606;BME280;5350;42.698;23.148;2024-03-23T10:52:46;93395.88;;;17.46;28.24
10606;BME280;5350;42.698;23.148;2024-03-23T10:55:15;93388.03;;;17.50;27.54
10606;BME280;5350;42.698;23.148;2024-03-23T10:57:47;93376.44;;;17.70;29.04
10606;BME280;5350;42.698;23.148;2024-03-23T11:00:14;93369.69;;;17.88;28.64
10606;BME280;5350;42.698;23.148;2024-03-23T11:02:42;93367.53;;;18.21;27.77
10606;BME280;5350;42.698;23.148;2024-03-23T11:05:28;93356.44;;;18.63;28.64
10606;BME280;5350;42.698;23.148;2024-03-23T11:07:56;93354.41;;;18.91;27.39
10606;BME280;5350;42.698;23.148;2024-03-23T11:10:27;93359.56;;;18.99;26.75
10606;BME280;5350;42.698;23.148;2024-03-23T11:12:54;93344.44;;;18.88;27.15
10606;BME280;5350;42.698;23.148;2024-03-23T11:15:20;93343.88;;;18.79;28.42
10606;BME280;5350;42.698;23.148;2024-03-23T11:18:02;93338.84;;;18.93;27.61
10606;BME280;5350;42.698;23.148;2024-03-23T11:20:31;93329.75;;;19.13;26.97
10606;BME280;5350;42.698;23.148;2024-03-23T11:22:59;93332.75;;;19.27;27.05
10606;BME280;5350;42.698;23.148;2024-03-23T11:25:27;93333.00;;;19.38;27.40
10606;BME280;5350;42.698;23.148;2024-03-23T11:27:55;93330.94;;;19.31;26.46
10606;BME280;5350;42.698;23.148;2024-03-23T11:30:22;93315.53;;;19.59;27.22
10606;BME280;5350;42.698;23.148;2024-03-23T11:32:50;93320.47;;;19.80;26.21
10606;BME280;5350;42.698;23.148;2024-03-23T11:35:29;93316.34;;;19.44;25.79
10606;BME280;5350;42.698;23.148;2024-03-23T11:38:08;93295.44;;;19.65;26.29
10606;BME280;5350;42.698;23.148;2024-03-23T11:40:40;93306.94;;;20.11;25.80
10606;BME280;5350;42.698;23.148;2024-03-23T11:43:08;93300.06;;;20.10;24.46
10606;BME280;5350;42.698;23.148;2024-03-23T11:45:35;93295.78;;;20.25;25.36
10606;BME280;5350;42.698;23.148;2024-03-23T11:48:03;93292.69;;;20.23;24.62
10606;BME280;5350;42.698;23.148;2024-03-23T11:50:29;93284.63;;;20.42;24.21
10606;BME280;5350;42.698;23.148;2024-03-23T11:53:12;93274.75;;;20.46;24.25
10606;BME280;5350;42.698;23.148;2024-03-23T11:55:58;93271.47;;;20.82;24.43
10606;BME280;5350;42.698;23.148;2024-03-23T11:58:26;93264.69;;;21.14;24.69
10606;BME280;5350;42.698;23.148;2024-03-23T12:00:56;93271.91;;;21.40;22.25
10606;BME280;5350;42.698;23.148;2024-03-23T12:03:24;93254.06;;;20.92;22.83
10606;BME280;5350;42.698;23.148;2024-03-23T12:05:52;93257.84;;;20.91;21.81
10606;BME280;5350;42.698;23.148;2024-03-23T12:08:21;93252.59;;;20.98;21.96
10606;BME280;5350;42.698;23.148;2024-03-23T12:10:49;93239.94;;;20.95;22.12
10606;BME280;5350;42.698;23.148;2024-03-23T12:13:19;93237.00;;;21.29;23.36
10606;BME280;5350;42.698;23.148;2024-03-23T12:15:45;93241.47;;;21.88;22.20
10606;BME280;5350;42.698;23.148;2024-03-23T12:18:13;93232.84;;;21.69;22.57
10606;BME280;5350;42.698;23.148;2024-03-23T12:20:39;93233.66;;;21.76;22.66
10606;BME280;5350;42.698;23.148;2024-03-23T12:23:07;93231.91;;;22.27;22.88
10606;BME280;5350;42.698;23.148;2024-03-23T12:25:34;93222.97;;;22.60;22.04
10606;BME280;5350;42.698;23.148;2024-03-23T12:28:02;93217.84;;;22.45;21.58
10606;BME280;5350;42.698;23.148;2024-03-23T12:30:29;93219.97;;;22.72;21.23
10606;BME280;5350;42.698;23.148;2024-03-23T12:32:55;93212.31;;;22.67;20.81
10606;BME280;5350;42.698;23.148;2024-03-23T12:35:22;93209.72;;;22.85;21.06
10606;BME280;5350;42.698;23.148;2024-03-23T12:37:48;93203.63;;;22.88;20.58
10606;BME280;5350;42.698;23.148;2024-03-23T12:40:14;93202.84;;;22.87;20.66
10606;BME280;5350;42.698;23.148;2024-03-23T12:42:41;93188.41;;;23.17;20.93
10606;BME280;5350;42.698;23.148;2024-03-23T12:45:07;93179.97;;;23.15;21.39
10606;BME280;5350;42.698;23.148;2024-03-23T12:47:35;93187.63;;;22.44;21.42
10606;BME280;5350;42.698;23.148;2024-03-23T12:50:01;93194.06;;;22.36;21.70
10606;BME280;5350;42.698;23.148;2024-03-23T12:52:28;93182.66;;;22.46;21.16
10606;BME280;5350;42.698;23.148;2024-03-23T12:54:55;93179.34;;;22.63;20.93
10606;BME280;5350;42.698;23.148;2024-03-23T12:57:23;93171.19;;;23.21;21.03
10606;BME280;5350;42.698;23.148;2024-03-23T12:59:49;93168.28;;;23.72;20.80
10606;BME280;5350;42.698;23.148;2024-03-23T13:02:19;93166.34;;;23.58;19.57
10606;BME280;5350;42.698;23.148;2024-03-23T13:04:49;93162.91;;;23.72;20.04
10606;BME280;5350;42.698;23.148;2024-03-23T13:07:17;93166.75;;;23.99;19.90
10606;BME280;5350;42.698;23.148;2024-03-23T13:09:43;93156.00;;;23.71;20.59
10606;BME280;5350;42.698;23.148;2024-03-23T13:12:10;93156.03;;;23.99;20.81
10606;BME280;5350;42.698;23.148;2024-03-23T13:14:37;93152.63;;;24.09;20.05
10606;BME280;5350;42.698;23.148;2024-03-23T13:17:04;93142.59;;;24.03;21.01
10606;BME280;5350;42.698;23.148;2024-03-23T13:19:30;93145.72;;;24.15;20.31
10606;BME280;5350;42.698;23.148;2024-03-23T13:21:58;93129.75;;;23.12;21.06
10606;BME280;5350;42.698;23.148;2024-03-23T13:24:25;93138.91;;;23.00;21.35
10606;BME280;5350;42.698;23.148;2024-03-23T13:26:53;93130.63;;;23.37;20.47
10606;BME280;5350;42.698;23.148;2024-03-23T13:29:19;93126.09;;;23.76;21.30
10606;BME280;5350;42.698;23.148;2024-03-23T13:31:46;93124.56;;;24.38;21.46
10606;BME280;5350;42.698;23.148;2024-03-23T13:34:12;93121.84;;;24.74;20.23
10606;BME280;5350;42.698;23.148;2024-03-23T13:36:40;93121.53;;;24.08;20.71
10606;BME280;5350;42.698;23.148;2024-03-23T13:39:07;93112.28;;;23.81;21.01
10606;BME280;5350;42.698;23.148;2024-03-23T13:41:38;93116.09;;;23.66;20.83
10606;BME280;5350;42.698;23.148;2024-03-23T13:44:05;93108.03;;;23.52;21.99
10606;BME280;5350;42.698;23.148;2024-03-23T13:46:31;93107.69;;;24.06;21.60
10606;BME280;5350;42.698;23.148;2024-03-23T13:48:57;93111.41;;;24.90;21.26
10606;BME280;5350;42.698;23.148;2024-03-23T13:51:24;93096.78;;;24.87;20.80
10606;BME280;5350;42.698;23.148;2024-03-23T13:53:50;93099.22;;;24.46;21.12
10606;BME280;5350;42.698;23.148;2024-03-23T13:56:18;93093.47;;;23.81;21.21